Lawndale, Illinois
Current Conditions -  °F | °C
As of 11:55 AM on Saturday 25 Oct 2014 (Local Time) from KAAA Reporting Station
Clear Clear  
Wind Chill: 73°   Ceiling: Unl
Heat Index: 73°   Visibility: 10mi
Dew Point: 57°   Wind: 5mph
Humidity: 58%   Direction: 290°WNW
Pressure: 29.99"   Gusts: NA
Location:  40.22°N, 89.28°W
Report Text: KAAA 251655Z AUTO 29004KT 10SM CLR 23/14 A2999 RMK AO2 T02250138
Loading
Personal Weather Stations






























Interactive Weather Map
Tropical Storm Tracking
New forecast layout! Learn more

10-Day Weather Forecast

Advertisements
Track Severe Weather on mobile